Time;durP1;ratioP1;P1;durP2;ratioP2;P2;SDS_P1;SDS_P2;PMS_P1;PMS_P2;Temp;Humidity;BMP_temperature;BMP_pressure;BME280_temperature;BME280_humidity;BME280_pressure;Samples;Min_cycle;Max_cycle;Signal;HPM_P1;HPM_P2
2022/02/13 00:00:16;;;;;;;1.83;1.60;;;23.30;58.00;;;;;;5062227;28;20489;-86
2022/02/13 00:02:44;;;;;;;1.90;1.20;;;23.30;57.90;;;;;;5054066;28;20450;-81
2022/02/13 00:05:12;;;;;;;1.60;1.40;;;23.30;57.90;;;;;;5069601;28;20437;-90
2022/02/13 00:07:40;;;;;;;1.33;1.07;;;23.30;57.90;;;;;;5068215;28;20433;-81
2022/02/13 00:10:09;;;;;;;1.40;1.30;;;23.30;57.90;;;;;;5062429;28;20441;-83
2022/02/13 00:12:36;;;;;;;1.50;1.20;;;23.30;57.90;;;;;;5060090;28;20437;-89
2022/02/13 00:15:03;;;;;;;1.40;1.30;;;23.30;57.80;;;;;;5073715;28;20444;-89
2022/02/13 00:17:30;;;;;;;1.50;1.40;;;23.30;57.80;;;;;;5063210;28;20831;-89
2022/02/13 00:19:58;;;;;;;1.90;1.33;;;23.20;57.70;;;;;;5059361;28;20504;-89
2022/02/13 00:22:25;;;;;;;1.87;1.50;;;23.20;57.70;;;;;;5073696;28;20437;-80
2022/02/13 00:24:53;;;;;;;1.70;1.20;;;23.20;57.70;;;;;;5072949;28;20441;-80
2022/02/13 00:27:20;;;;;;;1.60;1.50;;;23.20;57.70;;;;;;5073859;28;20461;-81
2022/02/13 00:29:47;;;;;;;1.40;1.30;;;23.20;57.60;;;;;;5072930;28;20437;-90
2022/02/13 00:32:13;;;;;;;4.03;1.47;;;23.20;57.60;;;;;;5073697;28;20786;-81
2022/02/13 00:34:40;;;;;;;1.60;1.47;;;23.20;57.60;;;;;;5073634;28;20433;-80
2022/02/13 00:37:07;;;;;;;1.30;1.17;;;23.20;57.60;;;;;;5073791;28;20444;-89
2022/02/13 00:39:33;;;;;;;1.30;1.13;;;23.20;57.60;;;;;;5073549;28;20889;-80
2022/02/13 00:42:02;;;;;;;1.50;1.30;;;23.20;57.60;;;;;;5073668;28;20445;-90
2022/02/13 00:44:28;;;;;;;1.50;1.40;;;23.20;57.50;;;;;;5072890;28;20440;-80
2022/02/13 00:46:55;;;;;;;1.60;1.50;;;23.20;57.50;;;;;;5073282;28;20447;-88
2022/02/13 00:49:23;;;;;;;1.70;1.33;;;23.20;57.50;;;;;;5073495;28;20532;-90
2022/02/13 00:51:50;;;;;;;1.60;1.50;;;23.20;57.50;;;;;;5073474;28;20444;-81
2022/02/13 00:54:16;;;;;;;1.67;1.47;;;23.20;57.50;;;;;;5073647;28;20499;-90
2022/02/13 00:56:43;;;;;;;1.40;1.30;;;23.10;57.40;;;;;;5073352;28;20476;-89
2022/02/13 00:59:11;;;;;;;1.67;1.30;;;23.10;57.40;;;;;;5073236;28;20488;-81
2022/02/13 01:01:38;;;;;;;3.50;1.67;;;23.10;57.40;;;;;;5073220;28;20440;-81
2022/02/13 01:04:05;;;;;;;1.30;1.20;;;23.10;57.30;;;;;;5073146;28;20966;-81
2022/02/13 01:06:32;;;;;;;1.60;1.43;;;23.10;57.30;;;;;;5073272;28;20440;-80
2022/02/13 01:08:59;;;;;;;1.90;1.60;;;23.10;57.30;;;;;;5073029;28;20919;-91
2022/02/13 01:11:26;;;;;;;1.20;1.00;;;23.10;57.30;;;;;;5073328;28;20448;-80
2022/02/13 01:13:52;;;;;;;1.50;1.27;;;23.10;57.30;;;;;;5073212;28;20842;-81
2022/02/13 01:16:20;;;;;;;1.87;1.30;;;23.10;57.20;;;;;;5072930;28;20428;-90
2022/02/13 01:18:47;;;;;;;1.97;1.40;;;23.10;57.20;;;;;;5073357;28;20437;-90
2022/02/13 01:21:14;;;;;;;1.57;1.47;;;23.10;57.20;;;;;;5073047;28;20436;-90
2022/02/13 01:23:41;;;;;;;1.20;1.10;;;23.10;57.20;;;;;;5073020;28;20793;-89
2022/02/13 01:26:08;;;;;;;2.00;1.40;;;23.00;57.70;;;;;;5073230;28;20464;-81
2022/02/13 01:28:35;;;;;;;1.30;1.20;;;23.10;57.20;;;;;;5072959;28;20457;-80
2022/02/13 01:31:02;;;;;;;1.60;1.23;;;23.10;57.20;;;;;;5072935;28;20445;-90
2022/02/13 01:33:31;;;;;;;1.47;1.37;;;23.00;57.00;;;;;;5072997;28;20521;-80
2022/02/13 01:35:58;;;;;;;1.37;1.20;;;23.00;57.10;;;;;;5072918;28;20444;-90
2022/02/13 01:38:25;;;;;;;1.20;1.10;;;23.00;57.00;;;;;;5072918;28;20445;-80
2022/02/13 01:40:52;;;;;;;1.50;1.40;;;23.00;57.00;;;;;;5075940;28;20491;-81
2022/02/13 01:43:19;;;;;;;1.40;1.30;;;23.00;57.00;;;;;;5077011;28;20448;-90
2022/02/13 01:45:46;;;;;;;5.23;1.30;;;23.00;57.00;;;;;;5076643;28;20444;-90
2022/02/13 01:48:13;;;;;;;1.40;1.30;;;23.00;57.00;;;;;;5076845;28;20444;-80
2022/02/13 01:50:42;;;;;;;2.43;1.37;;;23.00;57.00;;;;;;5076545;28;20437;-80
2022/02/13 01:53:10;;;;;;;1.70;1.60;;;23.00;57.00;;;;;;5076553;28;20443;-81
2022/02/13 01:55:37;;;;;;;1.30;1.20;;;23.00;56.90;;;;;;5076492;28;20433;-80
2022/02/13 01:58:04;;;;;;;2.00;1.40;;;23.00;57.00;;;;;;5076320;28;20457;-89
2022/02/13 02:00:31;;;;;;;1.60;1.50;;;23.00;56.90;;;;;;5076244;28;20483;-80
2022/02/13 02:02:58;;;;;;;1.33;1.17;;;23.00;56.90;;;;;;5076272;28;20441;-90
2022/02/13 02:05:25;;;;;;;1.20;1.10;;;23.00;56.90;;;;;;5076208;28;20440;-80
2022/02/13 02:07:53;;;;;;;1.40;1.30;;;23.00;56.90;;;;;;5076248;28;20920;-80
2022/02/13 02:10:21;;;;;;;1.37;1.27;;;23.00;56.90;;;;;;5076329;28;20452;-81
2022/02/13 02:12:48;;;;;;;1.53;1.43;;;23.00;56.80;;;;;;5076236;28;20444;-90
2022/02/13 02:15:16;;;;;;;1.30;1.20;;;23.00;56.80;;;;;;5076358;28;20437;-80
2022/02/13 02:17:42;;;;;;;1.30;1.20;;;22.90;56.80;;;;;;5075805;28;20563;-89
2022/02/13 02:20:10;;;;;;;1.40;1.23;;;22.90;56.80;;;;;;5076020;28;20491;-80
2022/02/13 02:22:37;;;;;;;1.40;1.30;;;22.90;56.70;;;;;;5076035;28;20452;-80
2022/02/13 02:25:06;;;;;;;1.53;1.20;;;22.90;56.70;;;;;;5075835;28;20455;-81
2022/02/13 02:27:33;;;;;;;1.57;1.30;;;22.90;56.60;;;;;;5075835;28;20457;-80
2022/02/13 02:29:59;;;;;;;1.53;1.43;;;22.90;56.60;;;;;;5076049;28;20437;-81
2022/02/13 02:32:26;;;;;;;1.77;1.50;;;22.90;56.60;;;;;;5075882;28;20440;-89
2022/02/13 02:34:53;;;;;;;1.60;1.50;;;22.90;56.60;;;;;;5075898;28;20472;-80
2022/02/13 02:37:20;;;;;;;1.43;1.20;;;22.90;56.60;;;;;;5076047;28;20448;-80
2022/02/13 02:39:46;;;;;;;1.43;1.20;;;23.00;56.70;;;;;;5075576;28;20485;-81
2022/02/13 02:42:15;;;;;;;1.97;1.53;;;22.90;56.60;;;;;;5075496;28;20452;-80
2022/02/13 02:44:42;;;;;;;1.57;1.47;;;22.90;56.60;;;;;;5075632;28;20443;-81
2022/02/13 02:47:09;;;;;;;1.90;1.57;;;22.90;56.60;;;;;;5075627;28;20440;-81
2022/02/13 02:49:36;;;;;;;1.33;1.23;;;22.90;56.50;;;;;;5075497;28;20444;-80
2022/02/13 02:52:02;;;;;;;1.57;1.30;;;22.90;56.50;;;;;;5074792;28;20464;-81
2022/02/13 02:54:29;;;;;;;1.67;1.43;;;22.90;56.50;;;;;;5075514;28;20445;-81
2022/02/13 02:56:56;;;;;;;1.40;1.20;;;22.90;56.50;;;;;;5075350;28;20465;-81
2022/02/13 02:59:24;;;;;;;1.40;1.30;;;22.80;56.50;;;;;;5075630;28;20515;-80
2022/02/13 03:01:51;;;;;;;1.83;1.27;;;22.90;56.50;;;;;;5075235;28;20448;-80
2022/02/13 03:04:18;;;;;;;1.40;1.30;;;22.80;56.40;;;;;;5075136;28;20437;-80
2022/02/13 03:06:44;;;;;;;1.20;1.10;;;22.80;56.40;;;;;;5073802;28;20872;-80
2022/02/13 03:09:11;;;;;;;1.40;1.17;;;22.80;56.40;;;;;;5073969;28;20440;-84
2022/02/13 03:11:38;;;;;;;1.50;1.40;;;22.80;56.40;;;;;;5074416;28;20436;-80
2022/02/13 03:14:04;;;;;;;1.40;1.23;;;22.80;56.40;;;;;;5074894;28;20442;-80
2022/02/13 03:16:33;;;;;;;1.30;1.20;;;22.80;56.40;;;;;;5074545;28;20819;-80
2022/02/13 03:18:59;;;;;;;1.27;1.17;;;22.80;56.40;;;;;;5074676;28;21110;-80
2022/02/13 03:21:27;;;;;;;1.53;1.30;;;22.80;56.40;;;;;;5074834;28;20823;-80
2022/02/13 03:23:54;;;;;;;1.27;1.17;;;22.80;56.90;;;;;;5075155;28;20498;-80
2022/02/13 03:26:24;;;;;;;2.37;1.40;;;22.80;56.30;;;;;;5074690;28;20460;-90
2022/02/13 03:28:51;;;;;;;1.63;1.53;;;22.80;56.30;;;;;;5073244;28;20448;-80
2022/02/13 03:31:18;;;;;;;1.23;1.10;;;22.80;56.30;;;;;;5073084;28;20451;-80
2022/02/13 03:33:46;;;;;;;1.30;1.13;;;22.80;56.30;;;;;;5073113;28;20448;-81
2022/02/13 03:36:12;;;;;;;1.30;1.10;;;22.90;56.30;;;;;;5073289;28;20463;-81
2022/02/13 03:38:39;;;;;;;2.23;1.20;;;22.70;56.20;;;;;;5073202;28;20448;-80
2022/02/13 03:41:06;;;;;;;1.80;1.23;;;22.70;56.20;;;;;;5072949;28;20510;-80
2022/02/13 03:43:32;;;;;;;1.50;1.40;;;22.70;56.20;;;;;;5073861;28;20958;-80
2022/02/13 03:45:59;;;;;;;1.80;1.17;;;22.70;56.20;;;;;;5074370;28;20445;-80
2022/02/13 03:48:26;;;;;;;1.20;1.10;;;22.70;56.20;;;;;;5074653;28;20788;-80
2022/02/13 03:50:54;;;;;;;1.43;1.23;;;22.70;56.20;;;;;;5074652;28;20480;-80
2022/02/13 03:53:21;;;;;;;1.30;1.20;;;22.70;56.10;;;;;;5074214;28;20468;-80
2022/02/13 03:55:48;;;;;;;1.37;1.00;;;22.70;56.10;;;;;;5073975;28;20444;-80
2022/02/13 03:58:14;;;;;;;1.63;1.53;;;22.70;56.10;;;;;;5074390;28;20457;-80
2022/02/13 04:00:41;;;;;;;1.33;1.23;;;22.70;56.10;;;;;;5074007;28;20489;-83
2022/02/13 04:03:08;;;;;;;1.30;1.20;;;22.70;56.10;;;;;;5073126;28;20452;-80
2022/02/13 04:05:34;;;;;;;1.10;1.00;;;22.70;56.10;;;;;;5074109;28;20441;-80
2022/02/13 04:08:02;;;;;;;1.40;1.30;;;22.70;56.10;;;;;;5073996;28;20440;-85
2022/02/13 04:10:29;;;;;;;1.40;1.30;;;22.70;56.10;;;;;;5074061;28;20441;-91
2022/02/13 04:12:56;;;;;;;1.47;1.37;;;22.70;56.00;;;;;;5073942;28;20436;-89
2022/02/13 04:15:24;;;;;;;1.70;1.30;;;22.70;56.10;;;;;;5073686;28;20440;-83
2022/02/13 04:17:51;;;;;;;1.23;1.13;;;22.70;56.00;;;;;;5073652;28;20813;-81
2022/02/13 04:20:20;;;;;;;1.40;1.23;;;22.70;56.00;;;;;;5073770;28;21010;-80
2022/02/13 04:22:46;;;;;;;2.33;1.30;;;22.70;56.00;;;;;;5073831;28;20445;-81
2022/02/13 04:25:14;;;;;;;1.50;1.40;;;22.60;55.90;;;;;;5073656;28;20456;-80
2022/02/13 04:27:41;;;;;;;2.23;1.20;;;22.60;55.90;;;;;;5073704;28;20483;-82
2022/02/13 04:30:09;;;;;;;1.40;1.30;;;22.70;55.90;;;;;;5073620;28;20441;-80
2022/02/13 04:32:36;;;;;;;1.60;1.50;;;22.60;55.90;;;;;;5073691;28;20442;-90
2022/02/13 04:35:03;;;;;;;1.60;1.37;;;22.60;55.90;;;;;;5073608;28;20452;-80
2022/02/13 04:37:29;;;;;;;1.20;1.10;;;22.60;55.90;;;;;;5073735;28;20935;-80
2022/02/13 04:39:56;;;;;;;1.70;1.47;;;22.60;55.90;;;;;;5073362;28;20433;-90
2022/02/13 04:42:24;;;;;;;1.47;1.27;;;22.70;55.90;;;;;;5073505;28;20452;-81
2022/02/13 04:44:51;;;;;;;1.40;1.30;;;22.60;55.90;;;;;;5073185;28;20927;-89
2022/02/13 04:47:17;;;;;;;1.37;1.27;;;22.60;55.90;;;;;;5073453;28;20448;-81
2022/02/13 04:49:46;;;;;;;1.63;1.50;;;22.60;55.80;;;;;;5073513;28;20444;-81
2022/02/13 04:52:13;;;;;;;1.53;1.30;;;22.60;55.90;;;;;;5073478;28;20439;-80
2022/02/13 04:54:40;;;;;;;1.20;1.00;;;22.60;55.80;;;;;;5073476;28;20755;-80
2022/02/13 04:57:07;;;;;;;1.83;1.40;;;22.60;55.80;;;;;;5073293;28;20483;-80
2022/02/13 04:59:37;;;;;;;1.33;1.10;;;22.60;55.80;;;;;;5073445;28;20772;-80
2022/02/13 05:02:04;;;;;;;1.50;1.40;;;22.60;55.80;;;;;;5073770;28;20484;-80
2022/02/13 05:04:31;;;;;;;1.20;1.10;;;22.60;55.80;;;;;;5073154;28;20950;-80
2022/02/13 05:06:58;;;;;;;1.30;1.20;;;22.60;55.80;;;;;;5073465;28;20444;-90
2022/02/13 05:09:24;;;;;;;1.10;1.00;;;22.60;55.80;;;;;;5073255;28;20472;-81
2022/02/13 05:11:51;;;;;;;1.57;1.47;;;22.60;55.80;;;;;;5073182;28;20476;-80
2022/02/13 05:14:18;;;;;;;1.30;1.20;;;22.60;55.80;;;;;;5073633;28;20433;-91
2022/02/13 05:16:46;;;;;;;1.37;1.23;;;22.50;55.70;;;;;;5077219;28;20483;-90
2022/02/13 05:19:13;;;;;;;1.20;1.10;;;22.60;55.80;;;;;;5077288;28;20816;-89
2022/02/13 05:21:40;;;;;;;1.27;1.17;;;22.50;55.70;;;;;;5077075;28;20533;-80
2022/02/13 05:24:07;;;;;;;1.43;1.33;;;22.50;55.70;;;;;;5077224;28;20783;-80
2022/02/13 05:26:33;;;;;;;2.80;1.20;;;22.50;55.70;;;;;;5077288;28;20547;-80
2022/02/13 05:29:00;;;;;;;1.10;1.00;;;22.50;55.70;;;;;;5077377;28;20950;-90
2022/02/13 05:31:30;;;;;;;1.20;1.10;;;22.50;55.70;;;;;;5077043;28;20444;-80
2022/02/13 05:33:58;;;;;;;1.20;1.07;;;22.50;55.70;;;;;;5077213;28;20445;-89
2022/02/13 05:36:25;;;;;;;1.27;1.10;;;22.50;55.70;;;;;;5076964;28;20441;-80
2022/02/13 05:38:52;;;;;;;1.40;1.30;;;22.50;55.70;;;;;;5077056;28;20467;-81
2022/02/13 05:41:19;;;;;;;1.20;1.10;;;22.50;55.70;;;;;;5076749;28;20485;-80
2022/02/13 05:43:45;;;;;;;1.20;1.07;;;22.50;55.70;;;;;;5076853;28;20452;-90
2022/02/13 05:46:12;;;;;;;1.20;1.07;;;22.50;55.70;;;;;;5076907;28;20433;-90
2022/02/13 05:48:40;;;;;;;2.57;1.27;;;22.50;55.70;;;;;;5076717;28;20440;-80
2022/02/13 05:51:10;;;;;;;1.47;1.10;;;22.50;55.70;;;;;;5076801;28;20444;-81
2022/02/13 05:53:37;;;;;;;1.60;1.50;;;22.50;55.70;;;;;;5076743;28;20536;-80
2022/02/13 05:56:04;;;;;;;1.47;1.20;;;22.50;55.70;;;;;;5076481;28;20789;-83
2022/02/13 05:58:34;;;;;;;1.70;1.00;;;22.50;55.70;;;;;;5076802;28;20440;-80
2022/02/13 06:01:01;;;;;;;1.20;1.00;;;22.50;55.70;;;;;;5076520;28;20484;-84
2022/02/13 06:03:28;;;;;;;1.30;1.20;;;22.50;55.60;;;;;;5076448;28;20824;-81
2022/02/13 06:05:55;;;;;;;1.53;1.40;;;22.50;55.60;;;;;;5076204;28;20453;-88
2022/02/13 06:08:23;;;;;;;1.60;1.23;;;22.50;55.60;;;;;;5076189;28;20440;-81
2022/02/13 06:10:50;;;;;;;1.40;1.10;;;22.50;55.60;;;;;;5076192;28;20495;-80
2022/02/13 06:13:17;;;;;;;1.20;1.10;;;22.50;55.60;;;;;;5076199;28;20433;-90
2022/02/13 06:15:44;;;;;;;1.20;1.10;;;22.50;55.60;;;;;;5076305;28;20449;-85
2022/02/13 06:18:10;;;;;;;1.90;1.70;;;22.50;55.60;;;;;;5075825;28;20477;-87
2022/02/13 06:20:40;;;;;;;1.30;1.17;;;22.50;55.60;;;;;;5076108;28;20476;-91
2022/02/13 06:23:07;;;;;;;1.10;1.00;;;22.50;55.60;;;;;;5076007;28;20445;-81
2022/02/13 06:25:35;;;;;;;1.30;1.10;;;22.50;55.60;;;;;;5075381;28;20445;-80
2022/02/13 06:28:03;;;;;;;1.17;1.07;;;22.50;55.60;;;;;;5075431;28;20464;-80
2022/02/13 06:30:29;;;;;;;1.70;1.00;;;22.50;55.60;;;;;;5076030;28;20444;-80
2022/02/13 06:32:59;;;;;;;1.40;1.30;;;22.50;55.60;;;;;;5076080;28;20440;-89
2022/02/13 06:35:26;;;;;;;1.30;1.20;;;22.50;55.60;;;;;;5076101;28;20448;-89
2022/02/13 06:37:53;;;;;;;1.10;1.00;;;22.50;55.60;;;;;;5075811;28;20429;-80
2022/02/13 06:40:20;;;;;;;1.30;1.20;;;22.50;55.70;;;;;;5075802;28;20922;-80
2022/02/13 06:42:48;;;;;;;1.13;1.00;;;22.50;55.70;;;;;;5076040;28;20448;-80
2022/02/13 06:45:15;;;;;;;1.50;1.40;;;22.50;55.70;;;;;;5075752;28;20464;-93
2022/02/13 06:47:42;;;;;;;1.30;1.10;;;22.50;54.40;;;;;;5075442;28;20433;-82
2022/02/13 06:50:10;;;;;;;1.23;1.07;;;22.50;55.00;;;;;;5079149;28;20436;-93
2022/02/13 06:52:37;;;;;;;1.70;1.10;;;22.40;55.40;;;;;;5095398;28;20441;-80
2022/02/13 06:55:04;;;;;;;2.07;1.13;;;22.40;55.40;;;;;;5095307;28;20443;-80
2022/02/13 06:57:31;;;;;;;1.50;1.23;;;22.40;55.50;;;;;;5091495;28;20467;-85
2022/02/13 07:00:00;;;;;;;2.90;1.40;;;22.40;55.50;;;;;;5076147;28;20433;-91
2022/02/13 07:02:26;;;;;;;4.57;1.03;;;22.40;55.50;;;;;;5075223;28;20884;-96
2022/02/13 07:04:53;;;;;;;1.20;1.10;;;22.40;55.60;;;;;;5075653;28;20512;-80
2022/02/13 07:07:20;;;;;;;1.10;1.00;;;22.50;55.70;;;;;;5074982;28;20947;-80
2022/02/13 07:09:46;;;;;;;1.60;1.27;;;22.50;55.80;;;;;;5074949;28;20448;-79
2022/02/13 07:12:13;;;;;;;2.20;1.20;;;22.50;55.80;;;;;;5075057;28;20445;-84
2022/02/13 07:14:41;;;;;;;1.57;1.47;;;22.50;55.80;;;;;;5075382;28;20969;-79
2022/02/13 07:17:09;;;;;;;1.23;1.00;;;22.50;56.00;;;;;;5074998;28;20516;-90
2022/02/13 07:19:37;;;;;;;1.10;1.00;;;22.50;56.10;;;;;;5075143;28;20432;-79
2022/02/13 07:22:05;;;;;;;2.93;1.40;;;22.60;56.30;;;;;;5074808;28;20571;-79
2022/02/13 07:24:32;;;;;;;1.97;1.07;;;22.50;56.30;;;;;;5075057;28;20445;-90
2022/02/13 07:26:59;;;;;;;5.03;1.23;;;22.50;56.40;;;;;;5074746;28;20469;-89
2022/02/13 07:29:25;;;;;;;1.40;1.10;;;22.50;56.50;;;;;;5074702;28;20429;-83
2022/02/13 07:31:52;;;;;;;1.30;1.03;;;22.50;56.50;;;;;;5074722;28;20436;-80
2022/02/13 07:34:20;;;;;;;1.53;1.10;;;22.50;56.50;;;;;;5074459;28;20440;-83
2022/02/13 07:36:51;;;;;;;2.20;1.30;;;22.50;56.50;;;;;;5074620;28;20790;-89
2022/02/13 07:39:18;;;;;;;5.37;1.10;;;22.50;56.60;;;;;;5074577;28;20509;-83
2022/02/13 07:41:44;;;;;;;1.10;1.00;;;22.50;56.60;;;;;;5074557;28;20499;-78
2022/02/13 07:44:11;;;;;;;3.60;1.30;;;22.50;56.60;;;;;;5074267;28;20441;-89
2022/02/13 07:46:38;;;;;;;1.30;1.20;;;22.50;56.60;;;;;;5073189;28;20437;-79
2022/02/13 07:49:05;;;;;;;1.50;1.40;;;22.50;56.70;;;;;;5074008;28;20437;-80
2022/02/13 07:51:34;;;;;;;1.90;1.10;;;22.50;56.70;;;;;;5073944;28;20445;-79
2022/02/13 07:54:01;;;;;;;1.40;1.27;;;22.50;56.70;;;;;;5073683;28;20524;-80
2022/02/13 07:56:28;;;;;;;1.50;1.10;;;22.50;56.70;;;;;;5073955;28;20468;-80
2022/02/13 07:58:55;;;;;;;1.40;1.30;;;22.60;56.80;;;;;;5073787;28;20436;-80
2022/02/13 08:01:21;;;;;;;1.97;1.20;;;22.60;56.80;;;;;;5073891;28;20484;-80
2022/02/13 08:03:48;;;;;;;1.60;1.50;;;22.50;56.80;;;;;;5073714;28;20443;-91
2022/02/13 08:06:17;;;;;;;1.20;1.10;;;22.50;56.80;;;;;;5073809;28;20452;-80
2022/02/13 08:08:45;;;;;;;1.40;1.30;;;22.50;56.80;;;;;;5073727;28;20862;-80
2022/02/13 08:11:12;;;;;;;2.80;1.50;;;22.60;56.90;;;;;;5073759;28;20449;-91
2022/02/13 08:13:39;;;;;;;1.50;1.10;;;22.60;56.90;;;;;;5073665;28;20441;-79
2022/02/13 08:16:08;;;;;;;2.03;1.80;;;22.60;56.90;;;;;;5073435;28;20437;-83
2022/02/13 08:18:34;;;;;;;3.50;1.47;;;22.60;54.70;;;;;;5073429;28;20505;-80
2022/02/13 08:21:03;;;;;;;4.93;1.87;;;22.60;55.70;;;;;;5073109;28;20441;-79
2022/02/13 08:23:30;;;;;;;7.77;2.17;;;22.60;52.80;;;;;;5072991;28;21013;-81
2022/02/13 08:25:58;;;;;;;2.67;1.40;;;22.60;53.40;;;;;;5087100;28;20814;-91
2022/02/13 08:28:26;;;;;;;3.10;1.10;;;22.70;54.50;;;;;;5079236;28;20428;-79
2022/02/13 08:30:53;;;;;;;1.80;1.30;;;22.60;55.60;;;;;;5068720;28;20520;-80
2022/02/13 08:33:20;;;;;;;1.17;1.03;;;22.70;56.00;;;;;;5063809;28;20516;-83
2022/02/13 08:35:47;;;;;;;2.17;1.40;;;22.70;56.00;;;;;;5064016;28;20424;-79
2022/02/13 08:38:15;;;;;;;2.03;1.30;;;22.80;56.20;;;;;;5063492;28;20982;-78
2022/02/13 08:40:42;;;;;;;1.10;1.00;;;22.90;56.20;;;;;;5064402;28;20440;-79
2022/02/13 08:43:10;;;;;;;1.63;1.53;;;23.00;56.20;;;;;;5063183;28;20481;-88
2022/02/13 08:45:38;;;;;;;2.40;1.60;;;23.20;56.20;;;;;;5087755;28;20436;-88
2022/02/13 08:48:06;;;;;;;1.70;1.20;;;23.30;55.80;;;;;;5094020;28;20432;-85
2022/02/13 08:50:33;;;;;;;2.60;1.47;;;23.40;55.40;;;;;;5093091;28;20454;-87
2022/02/13 08:52:59;;;;;;;1.50;1.40;;;23.60;54.90;;;;;;5093986;28;20462;-88
2022/02/13 08:55:26;;;;;;;1.50;1.20;;;23.70;54.80;;;;;;5093399;28;20953;-90
2022/02/13 08:57:53;;;;;;;2.03;1.10;;;23.90;54.80;;;;;;5092596;28;20459;-80
2022/02/13 09:00:21;;;;;;;2.27;1.13;;;24.00;54.60;;;;;;5093073;28;20436;-80
2022/02/13 09:02:48;;;;;;;2.10;1.37;;;24.20;54.60;;;;;;5093286;28;20483;-79
2022/02/13 09:05:17;;;;;;;1.20;1.10;;;24.40;54.60;;;;;;5093694;28;20446;-79
2022/02/13 09:07:44;;;;;;;2.27;1.47;;;24.40;54.40;;;;;;5093338;28;20946;-80
2022/02/13 09:10:12;;;;;;;4.03;1.33;;;24.50;54.30;;;;;;5093652;28;20435;-90
2022/02/13 09:12:40;;;;;;;2.23;1.13;;;24.70;54.30;;;;;;5093618;28;20438;-80
2022/02/13 09:15:08;;;;;;;2.43;1.20;;;24.80;54.30;;;;;;5093249;28;20451;-80
2022/02/13 09:17:36;;;;;;;3.20;1.20;;;24.80;54.00;;;;;;5093172;28;20476;-80
2022/02/13 09:20:04;;;;;;;5.63;1.47;;;25.00;54.10;;;;;;5093443;28;20447;-80
2022/02/13 09:22:31;;;;;;;2.13;1.20;;;25.10;53.90;;;;;;5093215;28;20989;-91
2022/02/13 09:24:58;;;;;;;1.40;1.30;;;25.20;53.70;;;;;;5093244;28;20432;-80
2022/02/13 09:27:25;;;;;;;1.33;1.17;;;25.30;53.50;;;;;;5093267;28;20464;-80
2022/02/13 09:29:52;;;;;;;2.87;1.27;;;25.40;53.40;;;;;;5093360;28;20852;-91
2022/02/13 09:32:19;;;;;;;2.73;1.33;;;25.40;52.80;;;;;;5093323;28;20451;-91
2022/02/13 09:34:47;;;;;;;1.87;1.13;;;25.50;52.70;;;;;;5093050;28;20440;-80
2022/02/13 09:37:14;;;;;;;1.73;1.33;;;25.60;53.20;;;;;;5093204;28;20443;-80
2022/02/13 09:39:41;;;;;;;1.50;1.23;;;25.60;53.00;;;;;;5093187;28;20442;-91
2022/02/13 09:42:10;;;;;;;2.40;1.43;;;25.40;53.10;;;;;;5093248;28;20476;-80
2022/02/13 09:44:38;;;;;;;1.80;1.30;;;25.40;53.10;;;;;;5093045;28;20447;-80
2022/02/13 09:47:05;;;;;;;3.20;1.10;;;25.40;53.00;;;;;;5093012;28;20443;-80
2022/02/13 09:49:32;;;;;;;1.67;1.43;;;25.40;53.20;;;;;;5092935;28;20960;-81
2022/02/13 09:52:01;;;;;;;1.40;1.10;;;25.40;53.50;;;;;;5093200;28;20439;-91
2022/02/13 09:54:28;;;;;;;2.03;1.27;;;25.60;53.70;;;;;;5093075;28;20855;-80
2022/02/13 09:57:59;;;;;;;1.77;1.13;;;25.70;53.70;;;;;;5093057;28;20456;-80
2022/02/13 09:59:55;;;;;;;1.60;1.30;;;25.90;53.60;;;;;;5093015;28;20768;-92
2022/02/13 10:02:35;;;;;;;1.40;1.30;;;26.20;53.30;;;;;;5096610;28;20486;-91
2022/02/13 10:05:04;;;;;;;1.40;1.30;;;26.50;53.20;;;;;;5096728;28;20458;-82
2022/02/13 10:07:34;;;;;;;1.77;1.40;;;26.70;53.10;;;;;;5096897;28;20432;-81
2022/02/13 10:10:02;;;;;;;4.13;1.53;;;26.90;52.80;;;;;;5096625;28;20803;-80
2022/02/13 10:12:38;;;;;;;2.13;1.20;;;26.90;52.70;;;;;;5096859;28;20772;-91
2022/02/13 10:15:30;;;;;;;2.23;1.20;;;27.10;52.70;;;;;;5096329;28;20929;-91
2022/02/13 10:18:02;;;;;;;1.83;1.60;;;27.20;52.70;;;;;;5090343;28;20921;-91
2022/02/13 10:20:31;;;;;;;1.50;1.40;;;27.20;52.70;;;;;;5096513;28;20436;-81
2022/02/13 10:23:04;;;;;;;1.30;1.20;;;27.20;52.70;;;;;;5096169;28;20847;-82
2022/02/13 10:25:30;;;;;;;1.47;1.17;;;27.20;52.70;;;;;;5096491;28;20434;-86
2022/02/13 10:27:57;;;;;;;1.50;1.10;;;27.20;52.60;;;;;;5096615;28;20785;-87
2022/02/13 10:30:38;;;;;;;1.10;1.00;;;27.30;52.60;;;;;;5096459;28;20452;-90
2022/02/13 10:33:19;;;;;;;1.33;1.20;;;27.30;52.70;;;;;;5096048;28;20436;-80
2022/02/13 10:36:04;;;;;;;1.23;1.13;;;27.20;52.70;;;;;;5096322;28;20906;-92
2022/02/13 10:38:33;;;;;;;1.10;1.00;;;27.30;52.70;;;;;;5096561;28;20428;-92
2022/02/13 10:41:18;;;;;;;2.43;1.20;;;27.20;52.70;;;;;;5096161;28;20898;-92
2022/02/13 10:43:59;;;;;;;1.40;1.30;;;27.20;52.70;;;;;;5095859;28;20487;-91
2022/02/13 10:46:29;;;;;;;1.27;1.17;;;27.20;52.70;;;;;;5096451;28;20465;-83
2022/02/13 10:48:56;;;;;;;1.40;1.23;;;27.20;52.80;;;;;;5096771;28;20444;-82
2022/02/13 10:51:24;;;;;;;1.40;1.07;;;27.20;52.80;;;;;;5095935;28;20436;-89
2022/02/13 10:53:54;;;;;;;1.20;1.00;;;27.10;52.90;;;;;;5095928;28;20451;-81
2022/02/13 10:56:21;;;;;;;1.20;1.10;;;27.00;53.00;;;;;;5095930;28;20464;-88
2022/02/13 10:58:48;;;;;;;2.30;1.47;;;26.90;53.10;;;;;;5095744;28;20441;-91
2022/02/13 11:01:16;;;;;;;1.20;0.90;;;26.80;53.30;;;;;;5095755;28;20440;-80
2022/02/13 11:03:48;;;;;;;1.20;1.10;;;26.70;53.40;;;;;;5095406;28;20475;-81
2022/02/13 11:06:16;;;;;;;1.83;1.33;;;26.60;53.50;;;;;;5095755;28;20547;-88
2022/02/13 11:08:47;;;;;;;1.30;1.20;;;26.50;53.70;;;;;;5095622;28;20436;-82
2022/02/13 11:11:16;;;;;;;1.60;1.20;;;26.40;53.80;;;;;;5095499;28;20443;-80
2022/02/13 11:13:45;;;;;;;1.50;1.30;;;26.30;53.90;;;;;;5094883;28;20447;-83
2022/02/13 11:16:28;;;;;;;1.20;1.10;;;26.20;54.00;;;;;;5095147;28;20432;-82
2022/02/13 11:18:58;;;;;;;1.47;1.03;;;26.20;54.10;;;;;;5093937;28;20476;-82
2022/02/13 11:21:27;;;;;;;1.40;1.30;;;26.10;54.30;;;;;;5095486;28;20549;-83
2022/02/13 11:23:54;;;;;;;1.60;1.40;;;26.00;54.30;;;;;;5095213;28;20488;-88
2022/02/13 11:26:36;;;;;;;1.20;1.00;;;26.00;54.50;;;;;;5095316;28;20529;-91
2022/02/13 11:29:04;;;;;;;1.27;1.10;;;26.00;54.60;;;;;;5095264;28;20436;-86
2022/02/13 11:31:45;;;;;;;1.60;1.50;;;25.80;54.60;;;;;;5095200;28;20501;-90
2022/02/13 11:34:15;;;;;;;1.50;1.40;;;25.90;55.10;;;;;;5094910;28;20492;-84
2022/02/13 11:36:46;;;;;;;1.40;1.17;;;25.70;54.80;;;;;;5094971;28;20436;-80
2022/02/13 11:39:33;;;;;;;1.30;1.10;;;25.70;54.80;;;;;;5094972;28;20447;-89
2022/02/13 11:42:02;;;;;;;1.10;1.00;;;25.70;54.90;;;;;;5094817;28;20450;-90
2022/02/13 11:44:37;;;;;;;1.40;1.30;;;25.70;55.00;;;;;;5094790;28;20440;-82
2022/02/13 11:47:05;;;;;;;1.30;1.10;;;25.80;55.10;;;;;;5094985;28;20458;-90
2022/02/13 11:49:32;;;;;;;1.27;1.07;;;25.70;55.10;;;;;;5094765;28;20774;-86
2022/02/13 11:52:01;;;;;;;1.40;1.30;;;25.60;55.10;;;;;;5094734;28;20447;-90
2022/02/13 11:54:55;;;;;;;1.67;1.07;;;25.70;55.20;;;;;;5094507;28;20444;-90
2022/02/13 11:57:26;;;;;;;1.30;1.17;;;25.50;55.10;;;;;;5069816;28;20478;-83
2022/02/13 12:00:09;;;;;;;1.40;1.00;;;25.50;55.30;;;;;;5094564;28;20436;-80
2022/02/13 12:02:44;;;;;;;1.20;1.10;;;25.50;55.40;;;;;;5094645;28;20996;-81
2022/02/13 12:05:17;;;;;;;1.30;1.17;;;25.40;55.40;;;;;;5094374;28;20477;-90
2022/02/13 12:08:00;;;;;;;1.30;1.00;;;25.50;55.50;;;;;;5094433;28;20922;-89
2022/02/13 12:10:29;;;;;;;1.50;1.20;;;25.50;55.50;;;;;;5094437;28;20436;-80
2022/02/13 12:13:08;;;;;;;1.20;1.00;;;25.40;55.50;;;;;;5094477;28;20444;-90
2022/02/13 12:15:35;;;;;;;1.03;0.87;;;25.50;55.60;;;;;;5094292;28;20447;-90
2022/02/13 12:18:06;;;;;;;1.30;1.03;;;25.40;55.60;;;;;;5093855;28;20476;-90
2022/02/13 12:20:34;;;;;;;1.30;1.20;;;25.30;55.60;;;;;;5094198;28;20443;-82
2022/02/13 12:23:06;;;;;;;1.10;0.97;;;25.40;55.70;;;;;;5093940;28;20472;-90
2022/02/13 12:25:34;;;;;;;1.37;1.27;;;25.30;55.70;;;;;;5093237;28;20991;-82
2022/02/13 12:28:01;;;;;;;1.30;1.20;;;25.30;55.80;;;;;;5093850;28;20448;-86
2022/02/13 12:30:29;;;;;;;1.30;1.20;;;25.30;55.80;;;;;;5093992;28;20462;-89
2022/02/13 12:32:57;;;;;;;1.40;1.20;;;25.30;55.80;;;;;;5094308;28;20945;-90
2022/02/13 12:35:27;;;;;;;1.20;1.10;;;25.20;55.80;;;;;;5093901;28;20440;-80
2022/02/13 12:37:55;;;;;;;1.10;0.97;;;25.30;55.90;;;;;;5093965;28;20538;-84
2022/02/13 12:40:25;;;;;;;1.30;1.10;;;25.20;55.80;;;;;;5093860;28;20436;-82
2022/02/13 12:42:54;;;;;;;1.20;1.00;;;25.20;55.80;;;;;;5093799;28;20491;-90
2022/02/13 12:45:22;;;;;;;1.30;1.17;;;25.20;55.90;;;;;;5093828;28;20806;-90
2022/02/13 12:47:54;;;;;;;1.67;1.20;;;25.30;55.90;;;;;;5093803;28;20451;-84
2022/02/13 12:50:23;;;;;;;1.20;1.10;;;25.30;55.90;;;;;;5093610;28;20915;-80
2022/02/13 12:52:50;;;;;;;1.37;1.23;;;25.30;55.90;;;;;;5093845;28;20440;-81